Time;durP1;ratioP1;P1;durP2;ratioP2;P2;SDS_P1;SDS_P2;PMS_P1;PMS_P2;Temp;Humidity;BMP_temperature;BMP_pressure;BME280_temperature;BME280_humidity;BME280_pressure;Samples;Min_cycle;Max_cycle;Signal;HPM_P1;HPM_P2
2023/05/23 00:02:23;;;;;;;;;;;;;;;19.74;54.82;97593.78;5099654;28;20306;-56
2023/05/23 00:04:57;;;;;;;;;;;;;;;19.68;54.93;97590.56;5100278;28;20076;-56
2023/05/23 00:07:25;;;;;;;;;;;;;;;19.62;55.11;97586.59;5097065;28;19934;-56
2023/05/23 00:09:54;;;;;;;;;;;;;;;19.59;55.20;97587.34;5095451;28;19935;-56
2023/05/23 00:12:23;;;;;;;;;;;;;;;19.58;55.28;97597.53;5088815;28;19991;-58
2023/05/23 00:14:52;;;;;;;;;;;;;;;19.56;55.29;97597.13;5085562;28;19938;-56
2023/05/23 00:17:20;;;;;;;;;;;;;;;19.54;55.54;97595.91;5084522;28;20013;-56
2023/05/23 00:19:48;;;;;;;;;;;;;;;19.47;55.62;97590.34;5091283;28;19930;-56
2023/05/23 00:22:16;;;;;;;;;;;;;;;19.49;55.54;97593.50;5101039;28;19930;-57
2023/05/23 00:24:44;;;;;;;;;;;;;;;19.45;55.87;97587.19;5098120;28;19935;-56
2023/05/23 00:27:12;;;;;;;;;;;;;;;19.38;56.08;97588.66;5086012;28;19934;-56
2023/05/23 00:29:41;;;;;;;;;;;;;;;19.39;56.08;97600.50;5099781;28;19934;-56
2023/05/23 00:32:09;;;;;;;;;;;;;;;19.35;56.34;97611.47;5092009;28;19946;-56
2023/05/23 00:34:37;;;;;;;;;;;;;;;19.30;56.71;97600.78;5095633;28;20007;-56
2023/05/23 00:37:04;;;;;;;;;;;;;;;19.30;56.85;97609.03;5092262;28;19934;-55
2023/05/23 00:39:33;;;;;;;;;;;;;;;19.23;57.07;97608.16;5089284;28;19959;-56
2023/05/23 00:42:04;;;;;;;;;;;;;;;19.20;57.42;97603.41;5131550;27;20003;-56
2023/05/23 00:44:31;;;;;;;;;;;;;;;19.17;57.63;97609.66;5093116;28;19920;-55
2023/05/23 00:47:00;;;;;;;;;;;;;;;19.14;57.84;97611.22;5100149;28;19940;-55
2023/05/23 00:49:28;;;;;;;;;;;;;;;19.08;58.07;97619.00;5093249;28;19935;-56
2023/05/23 00:51:56;;;;;;;;;;;;;;;19.09;58.27;97614.28;5091059;28;19920;-56
2023/05/23 00:54:26;;;;;;;;;;;;;;;19.08;58.43;97612.72;5095790;28;20388;-55
2023/05/23 00:56:54;;;;;;;;;;;;;;;19.03;58.77;97618.56;5097907;28;19949;-55
2023/05/23 00:59:22;;;;;;;;;;;;;;;18.99;58.77;97621.25;5089962;28;19938;-56
2023/05/23 01:01:51;;;;;;;;;;;;;;;18.91;59.15;97618.75;5122880;27;20271;-57
2023/05/23 01:04:25;;;;;;;;;;;;;;;18.89;59.39;97615.59;5105095;28;19931;-57
2023/05/23 01:06:53;;;;;;;;;;;;;;;18.81;59.50;97617.47;5090328;28;19949;-56
2023/05/23 01:09:21;;;;;;;;;;;;;;;18.76;59.67;97618.59;5099155;28;19934;-56
2023/05/23 01:11:50;;;;;;;;;;;;;;;18.78;59.79;97620.97;5098100;28;19974;-56
2023/05/23 01:14:19;;;;;;;;;;;;;;;18.81;59.76;97617.47;5092775;28;19941;-56
2023/05/23 01:16:47;;;;;;;;;;;;;;;18.74;60.05;97618.16;5097200;28;20017;-56
2023/05/23 01:19:25;;;;;;;;;;;;;;;18.66;60.48;97615.66;5097412;28;20255;-56
2023/05/23 01:21:53;;;;;;;;;;;;;;;18.72;60.23;97616.94;5087279;28;19920;-58
2023/05/23 01:24:35;;;;;;;;;;;;;;;18.71;60.41;97607.13;5088061;28;19920;-56
2023/05/23 01:27:08;;;;;;;;;;;;;;;18.74;60.30;97611.84;5093600;28;20314;-59
2023/05/23 01:29:38;;;;;;;;;;;;;;;18.68;60.55;97610.59;5097328;28;19938;-56
2023/05/23 01:32:07;;;;;;;;;;;;;;;18.70;60.57;97603.56;5097315;28;20096;-55
2023/05/23 01:34:36;;;;;;;;;;;;;;;18.72;60.67;97601.22;5102806;28;20352;-56
2023/05/23 01:37:05;;;;;;;;;;;;;;;18.69;60.77;97603.94;5098005;28;21813;-57
2023/05/23 01:39:35;;;;;;;;;;;;;;;18.67;60.79;97607.03;5091722;28;19949;-55
2023/05/23 01:42:04;;;;;;;;;;;;;;;18.68;60.76;97605.09;5087511;28;19931;-56
2023/05/23 01:44:32;;;;;;;;;;;;;;;18.63;60.99;97602.63;5095434;28;19985;-56
2023/05/23 01:47:01;;;;;;;;;;;;;;;18.59;60.97;97599.84;5084013;28;19920;-57
2023/05/23 01:49:29;;;;;;;;;;;;;;;18.56;61.40;97604.13;5096158;28;19984;-55
2023/05/23 01:51:59;;;;;;;;;;;;;;;18.60;61.24;97604.19;5126817;27;19931;-59
2023/05/23 01:54:29;;;;;;;;;;;;;;;18.63;61.12;97605.38;5097524;28;19949;-56
2023/05/23 01:56:57;;;;;;;;;;;;;;;18.58;61.18;97607.28;5095429;28;19964;-55
2023/05/23 01:59:25;;;;;;;;;;;;;;;18.61;61.22;97611.25;5101712;28;20105;-56
2023/05/23 02:01:56;;;;;;;;;;;;;;;18.51;61.53;97607.19;5086595;28;19935;-56
2023/05/23 02:04:25;;;;;;;;;;;;;;;18.62;61.26;97609.31;5096683;28;20026;-55
2023/05/23 02:06:53;;;;;;;;;;;;;;;18.60;61.44;97609.69;5096640;28;19993;-56
2023/05/23 02:09:20;;;;;;;;;;;;;;;18.57;61.50;97616.72;5127794;27;20354;-57
2023/05/23 02:11:48;;;;;;;;;;;;;;;18.52;61.59;97616.22;5095165;28;20353;-56
2023/05/23 02:14:17;;;;;;;;;;;;;;;18.54;61.61;97620.22;5093999;28;19992;-56
2023/05/23 02:16:45;;;;;;;;;;;;;;;18.44;61.87;97612.59;5093695;28;20025;-55
2023/05/23 02:19:15;;;;;;;;;;;;;;;18.45;61.86;97608.69;5093169;28;20427;-59
2023/05/23 02:21:44;;;;;;;;;;;;;;;18.43;61.99;97611.00;5098398;28;19937;-55
2023/05/23 02:24:12;;;;;;;;;;;;;;;18.37;62.04;97611.69;5097894;28;20000;-59
2023/05/23 02:26:40;;;;;;;;;;;;;;;18.34;62.38;97607.72;5088858;28;20387;-55
2023/05/23 02:29:08;;;;;;;;;;;;;;;18.30;62.35;97602.16;5096926;28;20307;-56
2023/05/23 02:31:36;;;;;;;;;;;;;;;18.28;62.62;97607.25;5085750;28;19946;-59
2023/05/23 02:34:04;;;;;;;;;;;;;;;18.24;62.54;97614.63;5088915;28;20261;-56
2023/05/23 02:36:33;;;;;;;;;;;;;;;18.14;63.07;97612.50;5108148;28;19939;-56
2023/05/23 02:39:02;;;;;;;;;;;;;;;18.10;63.29;97610.88;5096345;28;19942;-56
2023/05/23 02:41:29;;;;;;;;;;;;;;;18.22;62.89;97616.19;5105510;28;20434;-55
2023/05/23 02:43:58;;;;;;;;;;;;;;;18.16;62.98;97623.91;5131453;27;20025;-56
2023/05/23 02:46:26;;;;;;;;;;;;;;;18.11;63.30;97627.00;5097543;28;19963;-55
2023/05/23 02:48:54;;;;;;;;;;;;;;;18.15;63.18;97627.06;5123172;27;20140;-57
2023/05/23 02:51:22;;;;;;;;;;;;;;;18.17;63.17;97636.53;5103817;28;20271;-56
2023/05/23 02:53:49;;;;;;;;;;;;;;;18.16;63.19;97634.91;5097067;28;19970;-58
2023/05/23 02:56:22;;;;;;;;;;;;;;;18.10;63.55;97632.84;5100721;28;19927;-56
2023/05/23 02:58:49;;;;;;;;;;;;;;;18.01;63.68;97633.13;5093523;28;19920;-56
2023/05/23 03:01:18;;;;;;;;;;;;;;;18.00;63.83;97635.06;5081593;28;20377;-56
2023/05/23 03:03:46;;;;;;;;;;;;;;;17.95;63.98;97632.63;5100000;28;19920;-64
2023/05/23 03:06:15;;;;;;;;;;;;;;;17.95;64.14;97640.06;5100046;28;19921;-56
2023/05/23 03:08:43;;;;;;;;;;;;;;;17.88;64.39;97639.94;5096633;28;19960;-56
2023/05/23 03:11:11;;;;;;;;;;;;;;;17.92;64.22;97640.81;5093886;28;19927;-62
2023/05/23 03:13:40;;;;;;;;;;;;;;;17.89;64.57;97641.53;5104117;27;19950;-56
2023/05/23 03:16:08;;;;;;;;;;;;;;;17.77;64.63;97637.78;5091674;28;20412;-60
2023/05/23 03:18:40;;;;;;;;;;;;;;;17.78;64.90;97642.13;5095996;28;19958;-57
2023/05/23 03:21:08;;;;;;;;;;;;;;;17.71;65.12;97647.47;5102536;28;19927;-59
2023/05/23 03:23:36;;;;;;;;;;;;;;;17.67;65.19;97643.84;5103894;28;20018;-57
2023/05/23 03:26:05;;;;;;;;;;;;;;;17.75;65.14;97653.06;5097899;28;19969;-56
2023/05/23 03:28:33;;;;;;;;;;;;;;;17.72;65.15;97654.56;5097241;28;20273;-56
2023/05/23 03:31:02;;;;;;;;;;;;;;;17.73;65.14;97647.91;5095051;28;20379;-55
2023/05/23 03:33:30;;;;;;;;;;;;;;;17.69;65.37;97655.28;5089585;28;20527;-56
2023/05/23 03:35:57;;;;;;;;;;;;;;;17.72;65.19;97662.81;5097695;28;19932;-55
2023/05/23 03:38:27;;;;;;;;;;;;;;;17.69;65.43;97660.78;5096443;28;19920;-60
2023/05/23 03:40:55;;;;;;;;;;;;;;;17.65;65.65;97672.88;5094191;28;21927;-56
2023/05/23 03:43:22;;;;;;;;;;;;;;;17.59;65.87;97671.56;5101956;28;19924;-56
2023/05/23 03:45:50;;;;;;;;;;;;;;;17.63;65.99;97672.41;5123349;27;20304;-59
2023/05/23 03:48:20;;;;;;;;;;;;;;;17.60;66.03;97682.19;5105084;28;19924;-56
2023/05/23 03:50:48;;;;;;;;;;;;;;;17.53;66.41;97679.31;5098673;28;19929;-60
2023/05/23 03:53:16;;;;;;;;;;;;;;;17.50;66.58;97672.56;5084785;28;19920;-56
2023/05/23 03:55:44;;;;;;;;;;;;;;;17.48;66.57;97674.91;5097596;28;19924;-55
2023/05/23 03:58:12;;;;;;;;;;;;;;;17.44;66.74;97667.75;5106662;28;19932;-55
2023/05/23 04:00:42;;;;;;;;;;;;;;;17.46;66.91;97681.91;5086044;28;19920;-56
2023/05/23 04:03:13;;;;;;;;;;;;;;;17.46;67.00;97679.16;5098354;28;19920;-56
2023/05/23 04:05:43;;;;;;;;;;;;;;;17.45;67.06;97672.88;5130149;27;19958;-56
2023/05/23 04:08:11;;;;;;;;;;;;;;;17.40;67.18;97669.63;5095193;28;19952;-55
2023/05/23 04:10:40;;;;;;;;;;;;;;;17.42;67.36;97681.06;5092116;28;20624;-56
2023/05/23 04:13:08;;;;;;;;;;;;;;;17.42;67.18;97678.31;5125556;27;19924;-56
2023/05/23 04:15:38;;;;;;;;;;;;;;;17.41;67.45;97674.75;5096524;28;19945;-65
2023/05/23 04:18:09;;;;;;;;;;;;;;;17.38;67.67;97680.19;5119628;27;19920;-57
2023/05/23 04:20:37;;;;;;;;;;;;;;;17.37;67.82;97692.31;5101546;28;20288;-56
2023/05/23 04:23:06;;;;;;;;;;;;;;;17.35;67.81;97694.63;5122566;27;20011;-56
2023/05/23 04:25:43;;;;;;;;;;;;;;;17.36;67.95;97696.19;5120571;27;19942;-56
2023/05/23 04:28:38;;;;;;;;;;;;;;;17.36;68.11;97690.72;5087000;28;19939;-56
2023/05/23 04:31:07;;;;;;;;;;;;;;;17.31;68.23;97693.75;5098552;28;19920;-57
2023/05/23 04:33:37;;;;;;;;;;;;;;;17.22;68.71;97696.72;5126438;27;19920;-58
2023/05/23 04:36:08;;;;;;;;;;;;;;;17.18;68.90;97701.34;5095459;28;20305;-56
2023/05/23 04:38:39;;;;;;;;;;;;;;;17.17;69.08;97705.25;5090755;28;19920;-56
2023/05/23 04:41:09;;;;;;;;;;;;;;;17.21;68.90;97704.16;5097494;28;19924;-61
2023/05/23 04:43:56;;;;;;;;;;;;;;;17.17;69.21;97703.28;5088022;28;19952;-56
2023/05/23 04:46:33;;;;;;;;;;;;;;;17.14;69.47;97709.47;5095340;28;19939;-58
2023/05/23 04:49:11;;;;;;;;;;;;;;;17.13;69.67;97707.09;5090294;28;19938;-56
2023/05/23 04:51:40;;;;;;;;;;;;;;;17.13;69.66;97716.13;5092930;28;19920;-56
2023/05/23 04:54:20;;;;;;;;;;;;;;;17.11;69.66;97720.41;5097252;28;19920;-59
2023/05/23 04:56:52;;;;;;;;;;;;;;;17.11;69.91;97712.97;5098190;28;19977;-56
2023/05/23 04:59:21;;;;;;;;;;;;;;;17.17;69.88;97725.25;5131915;27;19920;-57
2023/05/23 05:01:50;;;;;;;;;;;;;;;17.21;69.57;97717.88;5084210;28;19923;-56
2023/05/23 05:04:19;;;;;;;;;;;;;;;17.31;69.44;97722.03;5096107;28;19939;-58
2023/05/23 05:06:47;;;;;;;;;;;;;;;17.43;68.74;97724.63;5119404;27;19928;-58
2023/05/23 05:09:16;;;;;;;;;;;;;;;17.50;68.62;97730.25;5085255;28;20599;-56
2023/05/23 05:11:45;;;;;;;;;;;;;;;17.57;68.64;97734.31;5086553;28;19973;-57
2023/05/23 05:14:14;;;;;;;;;;;;;;;17.66;68.09;97730.19;5095562;28;19955;-56
2023/05/23 05:16:42;;;;;;;;;;;;;;;17.76;67.86;97728.84;5083538;28;20389;-57
2023/05/23 05:19:10;;;;;;;;;;;;;;;17.79;67.65;97731.66;5084953;28;19938;-56
2023/05/23 05:21:39;;;;;;;;;;;;;;;17.81;67.67;97734.03;5088027;28;19931;-58
2023/05/23 05:24:08;;;;;;;;;;;;;;;17.92;67.36;97728.75;5078197;28;19958;-61
2023/05/23 05:26:36;;;;;;;;;;;;;;;17.98;67.10;97732.78;5094599;28;20001;-56
2023/05/23 05:29:06;;;;;;;;;;;;;;;18.01;66.86;97732.06;5089399;28;19942;-56
2023/05/23 05:31:36;;;;;;;;;;;;;;;18.03;66.67;97735.25;5089146;28;19941;-56
2023/05/23 05:34:04;;;;;;;;;;;;;;;18.08;66.82;97734.16;5106526;28;20359;-57
2023/05/23 05:36:35;;;;;;;;;;;;;;;18.07;67.05;97730.63;5123611;27;19930;-56
2023/05/23 05:39:05;;;;;;;;;;;;;;;18.12;66.55;97733.06;5120495;27;19939;-57
2023/05/23 05:41:33;;;;;;;;;;;;;;;18.17;66.26;97738.25;5101479;28;19930;-57
2023/05/23 05:44:01;;;;;;;;;;;;;;;18.17;66.13;97724.50;5098217;28;19984;-57
2023/05/23 05:46:30;;;;;;;;;;;;;;;18.13;66.47;97734.66;5120799;27;19937;-58
2023/05/23 05:48:58;;;;;;;;;;;;;;;18.05;66.69;97732.91;5096434;28;19985;-58
2023/05/23 05:51:26;;;;;;;;;;;;;;;18.09;66.45;97736.53;5093920;28;19931;-58
2023/05/23 05:53:54;;;;;;;;;;;;;;;18.13;66.34;97739.34;5095715;28;19953;-57
2023/05/23 05:56:22;;;;;;;;;;;;;;;18.18;66.14;97736.31;5091078;28;19950;-58
2023/05/23 05:58:50;;;;;;;;;;;;;;;18.23;65.99;97739.53;5085243;28;19934;-57
2023/05/23 06:01:18;;;;;;;;;;;;;;;18.29;65.81;97745.53;5085160;28;19988;-56
2023/05/23 06:03:48;;;;;;;;;;;;;;;18.38;65.59;97745.31;5098974;28;20499;-57
2023/05/23 06:06:16;;;;;;;;;;;;;;;18.45;65.41;97739.91;5114010;27;19934;-57
2023/05/23 06:08:44;;;;;;;;;;;;;;;18.51;64.72;97744.75;5087961;28;19961;-59
2023/05/23 06:11:15;;;;;;;;;;;;;;;18.58;64.75;97755.06;5096368;28;19938;-57
2023/05/23 06:13:43;;;;;;;;;;;;;;;18.63;64.69;97752.00;5095477;28;19984;-58
2023/05/23 06:16:11;;;;;;;;;;;;;;;18.67;64.06;97744.59;5088137;28;19991;-56
2023/05/23 06:18:40;;;;;;;;;;;;;;;18.76;63.96;97745.19;5094711;28;19935;-57
2023/05/23 06:21:10;;;;;;;;;;;;;;;18.81;63.83;97744.88;5122056;27;19942;-58
2023/05/23 06:23:38;;;;;;;;;;;;;;;18.79;63.85;97741.69;5113727;27;19998;-58
2023/05/23 06:26:09;;;;;;;;;;;;;;;18.79;63.72;97741.69;5099175;28;19930;-56
2023/05/23 06:28:37;;;;;;;;;;;;;;;18.71;63.67;97751.00;5102050;28;19995;-57
2023/05/23 06:31:09;;;;;;;;;;;;;;;18.68;63.50;97746.22;5118394;27;19943;-65
2023/05/23 06:33:39;;;;;;;;;;;;;;;18.67;63.46;97752.06;5101231;28;19934;-58
2023/05/23 06:36:07;;;;;;;;;;;;;;;18.72;63.30;97760.03;5103370;28;19939;-58
2023/05/23 06:38:36;;;;;;;;;;;;;;;18.68;63.31;97761.94;5091396;28;20023;-59
2023/05/23 06:41:06;;;;;;;;;;;;;;;18.73;63.36;97751.41;5103067;28;19937;-58
2023/05/23 06:43:36;;;;;;;;;;;;;;;18.83;63.27;97758.25;5100502;28;19935;-60
2023/05/23 06:46:15;;;;;;;;;;;;;;;18.80;63.50;97759.81;5125838;27;19988;-58
2023/05/23 06:48:43;;;;;;;;;;;;;;;18.94;62.92;97761.97;5090908;28;20488;-57
2023/05/23 06:51:11;;;;;;;;;;;;;;;19.02;62.46;97751.88;5091748;28;19966;-57
2023/05/23 06:53:43;;;;;;;;;;;;;;;19.05;62.53;97762.91;5093930;28;20395;-57
2023/05/23 06:56:11;;;;;;;;;;;;;;;19.20;61.94;97763.13;5096895;27;20037;-57
2023/05/23 06:58:49;;;;;;;;;;;;;;;19.24;61.57;97772.25;5137305;27;20639;-57
2023/05/23 07:01:17;;;;;;;;;;;;;;;19.20;61.44;97765.88;5126091;27;20029;-57
2023/05/23 07:03:48;;;;;;;;;;;;;;;19.21;61.63;97773.78;5128242;27;19938;-57
2023/05/23 07:06:17;;;;;;;;;;;;;;;19.46;60.95;97778.84;5087985;28;20292;-57
2023/05/23 07:08:47;;;;;;;;;;;;;;;19.44;60.52;97781.16;5097528;28;19950;-59
2023/05/23 07:11:15;;;;;;;;;;;;;;;19.32;60.49;97777.47;5089151;28;19938;-57
2023/05/23 07:13:48;;;;;;;;;;;;;;;19.15;60.94;97783.53;5092484;28;20387;-58
2023/05/23 07:16:36;;;;;;;;;;;;;;;19.13;61.36;97791.38;5089364;28;20287;-57
2023/05/23 07:19:06;;;;;;;;;;;;;;;19.16;61.08;97784.31;5086715;28;19930;-57
2023/05/23 07:21:41;;;;;;;;;;;;;;;19.15;60.99;97788.25;5090219;28;19988;-57
2023/05/23 07:24:11;;;;;;;;;;;;;;;19.13;60.44;97791.38;5101258;28;19982;-58
2023/05/23 07:26:38;;;;;;;;;;;;;;;19.05;60.71;97787.69;5101233;28;20029;-57
2023/05/23 07:29:06;;;;;;;;;;;;;;;18.99;60.75;97791.94;5092635;28;19951;-57
2023/05/23 07:31:34;;;;;;;;;;;;;;;18.90;61.06;97787.84;5125128;27;19931;-57
2023/05/23 07:34:03;;;;;;;;;;;;;;;18.87;61.22;97791.34;5090742;28;19934;-58
2023/05/23 07:36:39;;;;;;;;;;;;;;;18.81;61.86;97794.41;5114965;27;19952;-58
2023/05/23 07:39:12;;;;;;;;;;;;;;;18.92;61.72;97796.53;5094816;28;20006;-57
2023/05/23 07:41:40;;;;;;;;;;;;;;;19.00;61.68;97800.97;5081544;28;19980;-58
2023/05/23 07:44:08;;;;;;;;;;;;;;;19.04;61.15;97802.63;5083260;28;19950;-59
2023/05/23 07:46:36;;;;;;;;;;;;;;;18.98;61.52;97795.06;5085623;28;19930;-57
2023/05/23 07:49:04;;;;;;;;;;;;;;;18.92;61.77;97805.59;5121870;27;19950;-57
2023/05/23 07:51:32;;;;;;;;;;;;;;;18.93;61.52;97801.69;5090397;28;20360;-56
2023/05/23 07:54:00;;;;;;;;;;;;;;;19.00;60.66;97795.47;5102138;28;19960;-58
2023/05/23 07:56:29;;;;;;;;;;;;;;;19.02;60.54;97804.19;5106207;28;20402;-57
2023/05/23 07:58:57;;;;;;;;;;;;;;;18.98;60.34;97801.38;5096240;28;19941;-57
2023/05/23 08:01:25;;;;;;;;;;;;;;;19.07;60.99;97814.88;5083376;28;20359;-57
2023/05/23 08:04:02;;;;;;;;;;;;;;;19.13;60.79;97813.41;5085727;28;19935;-58
2023/05/23 08:06:49;;;;;;;;;;;;;;;19.16;60.20;97812.66;5114060;27;19938;-57
2023/05/23 08:09:45;;;;;;;;;;;;;;;19.29;59.83;97811.28;5107187;28;19946;-57
2023/05/23 08:12:18;;;;;;;;;;;;;;;19.35;59.42;97815.31;5121260;27;19984;-57
2023/05/23 08:14:50;;;;;;;;;;;;;;;19.35;59.46;97820.03;5091602;28;20067;-57
2023/05/23 08:17:32;;;;;;;;;;;;;;;19.32;59.02;97824.31;5119052;27;20017;-58
2023/05/23 08:20:00;;;;;;;;;;;;;;;19.46;58.65;97820.19;5086160;28;19949;-63
2023/05/23 08:22:30;;;;;;;;;;;;;;;19.62;57.14;97807.84;5090644;28;19950;-57
2023/05/23 08:24:58;;;;;;;;;;;;;;;19.80;56.20;97810.03;5088240;28;19956;-58
2023/05/23 08:27:30;;;;;;;;;;;;;;;19.88;55.97;97811.72;5093852;28;20025;-57
2023/05/23 08:30:03;;;;;;;;;;;;;;;19.88;55.85;97807.00;5097359;28;19946;-57
2023/05/23 08:32:33;;;;;;;;;;;;;;;19.86;56.02;97803.00;5075472;28;19942;-59
2023/05/23 08:35:01;;;;;;;;;;;;;;;19.67;55.86;97811.44;5085779;28;19954;-57
2023/05/23 08:37:28;;;;;;;;;;;;;;;19.61;55.12;97816.50;5084497;28;20375;-58
2023/05/23 08:39:56;;;;;;;;;;;;;;;19.59;55.26;97813.28;5088737;28;19934;-57
2023/05/23 08:42:55;;;;;;;;;;;;;;;19.74;54.76;97831.63;5068755;28;19985;-57
2023/05/23 08:45:23;;;;;;;;;;;;;;;19.96;53.53;97818.88;5083306;28;19984;-58
2023/05/23 08:47:51;;;;;;;;;;;;;;;20.00;52.83;97824.47;5085138;28;20000;-57
2023/05/23 08:50:21;;;;;;;;;;;;;;;20.06;53.03;97817.44;5097146;28;19947;-59
2023/05/23 08:52:52;;;;;;;;;;;;;;;20.06;53.10;97825.72;5124667;27;19937;-59
2023/05/23 08:55:20;;;;;;;;;;;;;;;20.02;53.27;97824.88;5086745;28;20326;-57
2023/05/23 08:57:51;;;;;;;;;;;;;;;19.94;52.17;97831.47;5100525;28;19937;-58
2023/05/23 09:00:36;;;;;;;;;;;;;;;19.98;52.01;97824.06;5093650;28;19938;-60
2023/05/23 09:03:04;;;;;;;;;;;;;;;20.04;52.38;97830.81;5104646;28;20379;-57
2023/05/23 09:05:48;;;;;;;;;;;;;;;20.11;52.43;97826.16;5089580;28;19955;-57
2023/05/23 09:08:18;;;;;;;;;;;;;;;20.07;53.20;97841.88;5077561;28;19934;-57
2023/05/23 09:10:46;;;;;;;;;;;;;;;19.87;53.28;97838.50;5126881;27;20395;-59
2023/05/23 09:13:14;;;;;;;;;;;;;;;19.83;52.68;97845.91;5121485;27;20257;-57
2023/05/23 09:15:58;;;;;;;;;;;;;;;19.84;52.82;97847.50;5080432;28;19935;-59
2023/05/23 09:18:32;;;;;;;;;;;;;;;20.13;52.82;97850.59;5105980;27;19954;-57
2023/05/23 09:21:00;;;;;;;;;;;;;;;20.35;52.04;97841.44;5088035;28;19937;-57
2023/05/23 09:23:29;;;;;;;;;;;;;;;20.63;50.97;97846.47;5084323;28;20491;-57
2023/05/23 09:25:57;;;;;;;;;;;;;;;20.73;51.01;97852.50;5096537;28;19945;-57
2023/05/23 09:28:25;;;;;;;;;;;;;;;20.59;51.72;97853.13;5085690;28;20004;-57
2023/05/23 09:30:59;;;;;;;;;;;;;;;20.22;52.18;97850.31;5113292;27;19947;-57
2023/05/23 09:33:37;;;;;;;;;;;;;;;20.08;52.22;97860.03;5089910;28;19934;-58
2023/05/23 09:36:08;;;;;;;;;;;;;;;20.08;52.53;97839.91;5081238;28;19947;-60
2023/05/23 09:38:38;;;;;;;;;;;;;;;20.37;52.04;97849.31;5081113;28;20527;-57
2023/05/23 09:41:05;;;;;;;;;;;;;;;20.45;51.66;97855.69;5081812;28;19938;-57
2023/05/23 09:43:34;;;;;;;;;;;;;;;20.44;50.91;97860.44;5121813;27;20283;-56
2023/05/23 09:46:08;;;;;;;;;;;;;;;20.46;50.56;97860.06;5085673;28;21176;-56
2023/05/23 09:48:36;;;;;;;;;;;;;;;20.39;51.34;97861.56;5123346;27;20416;-57
2023/05/23 09:51:05;;;;;;;;;;;;;;;20.38;51.57;97861.94;5100469;28;20315;-56
2023/05/23 09:53:33;;;;;;;;;;;;;;;20.31;52.21;97865.41;5092980;28;19957;-57
2023/05/23 09:56:03;;;;;;;;;;;;;;;20.16;52.54;97874.69;5092805;28;19939;-58
2023/05/23 09:58:31;;;;;;;;;;;;;;;20.25;51.98;97872.44;5093205;28;19985;-56
2023/05/23 10:01:02;;;;;;;;;;;;;;;20.50;51.41;97871.94;5082613;28;19938;-57
2023/05/23 10:03:34;;;;;;;;;;;;;;;20.62;51.32;97880.00;5082821;28;19956;-57
2023/05/23 10:06:03;;;;;;;;;;;;;;;20.38;51.66;97882.03;5089090;28;20326;-58
2023/05/23 10:08:33;;;;;;;;;;;;;;;20.24;51.90;97875.56;5085499;28;20380;-59
2023/05/23 10:11:15;;;;;;;;;;;;;;;20.07;51.77;97876.94;5090820;28;19924;-57
2023/05/23 10:13:44;;;;;;;;;;;;;;;19.91;51.70;97879.88;5094350;28;19970;-57
2023/05/23 10:16:13;;;;;;;;;;;;;;;20.05;50.95;97865.50;5099623;28;19995;-57
2023/05/23 10:18:43;;;;;;;;;;;;;;;20.22;51.10;97878.69;5093964;28;20029;-58
2023/05/23 10:21:11;;;;;;;;;;;;;;;20.45;50.55;97880.53;5095567;28;19934;-56
2023/05/23 10:23:39;;;;;;;;;;;;;;;20.25;49.64;97886.25;5093317;28;19955;-57
2023/05/23 10:26:07;;;;;;;;;;;;;;;20.28;49.62;97877.19;5094107;28;20079;-57
2023/05/23 10:28:35;;;;;;;;;;;;;;;20.46;48.69;97877.44;5099299;28;19946;-56
2023/05/23 10:31:03;;;;;;;;;;;;;;;20.56;48.17;97879.53;5095252;28;19999;-59
2023/05/23 10:33:32;;;;;;;;;;;;;;;20.73;47.83;97875.38;5087050;28;20065;-57
2023/05/23 10:36:03;;;;;;;;;;;;;;;20.86;47.23;97884.94;5091381;28;19931;-57
2023/05/23 10:38:34;;;;;;;;;;;;;;;20.74;47.31;97876.16;5085628;28;21783;-57
2023/05/23 10:41:05;;;;;;;;;;;;;;;20.77;47.42;97875.38;5096451;28;19931;-57
2023/05/23 10:43:34;;;;;;;;;;;;;;;20.72;47.01;97884.84;5094352;28;19983;-57
2023/05/23 10:46:03;;;;;;;;;;;;;;;20.67;47.33;97887.94;5080996;28;20042;-57
2023/05/23 10:48:35;;;;;;;;;;;;;;;20.53;47.55;97887.75;5102471;28;21017;-57
2023/05/23 10:51:05;;;;;;;;;;;;;;;20.47;47.79;97884.56;5100600;28;19932;-61
2023/05/23 10:53:34;;;;;;;;;;;;;;;20.26;48.17;97892.56;5084951;28;19920;-57
2023/05/23 10:56:04;;;;;;;;;;;;;;;20.24;48.16;97892.13;5089817;28;20001;-58
2023/05/23 10:58:32;;;;;;;;;;;;;;;20.21;48.38;97899.19;5088497;28;19924;-59
2023/05/23 11:01:01;;;;;;;;;;;;;;;20.23;47.92;97896.03;5113782;28;20281;-61
2023/05/23 11:03:33;;;;;;;;;;;;;;;20.30;48.10;97898.91;5099400;28;19924;-57
2023/05/23 11:06:02;;;;;;;;;;;;;;;20.30;47.55;97905.22;5088789;28;20034;-60
2023/05/23 11:08:38;;;;;;;;;;;;;;;20.21;46.94;97899.19;5092474;28;19920;-57
2023/05/23 11:11:14;;;;;;;;;;;;;;;20.27;47.19;97896.88;5094405;28;20357;-66
2023/05/23 11:13:55;;;;;;;;;;;;;;;20.34;47.06;97903.28;5089931;28;20316;-62
2023/05/23 11:16:23;;;;;;;;;;;;;;;20.42;46.94;97898.66;5091310;28;19929;-57
2023/05/23 11:18:51;;;;;;;;;;;;;;;20.35;47.04;97910.41;5084040;28;19921;-59
2023/05/23 11:21:19;;;;;;;;;;;;;;;20.24;47.55;97898.44;5081158;28;19927;-57
2023/05/23 11:23:49;;;;;;;;;;;;;;;20.26;47.26;97912.66;5091294;28;19920;-57
2023/05/23 11:26:29;;;;;;;;;;;;;;;20.19;47.61;97912.56;5096908;28;19927;-57
2023/05/23 11:28:58;;;;;;;;;;;;;;;20.07;47.56;97899.00;5090909;28;19920;-58
2023/05/23 11:31:25;;;;;;;;;;;;;;;20.15;47.37;97909.75;5093578;28;19928;-57
2023/05/23 11:33:53;;;;;;;;;;;;;;;20.16;47.16;97913.31;5101073;27;19963;-57
2023/05/23 11:36:21;;;;;;;;;;;;;;;20.13;46.41;97903.00;5087928;28;19920;-59
2023/05/23 11:38:51;;;;;;;;;;;;;;;20.27;46.40;97914.22;5110680;27;20307;-59
2023/05/23 11:41:19;;;;;;;;;;;;;;;20.52;45.25;97908.25;5091664;28;20003;-57
2023/05/23 11:43:50;;;;;;;;;;;;;;;20.54;45.31;97901.19;5084240;28;19963;-68
2023/05/23 11:46:18;;;;;;;;;;;;;;;20.55;45.14;97904.72;5091865;28;20017;-57
2023/05/23 11:48:46;;;;;;;;;;;;;;;20.50;44.37;97902.31;5095871;28;19930;-60
2023/05/23 11:51:14;;;;;;;;;;;;;;;20.56;44.83;97896.09;5087588;28;19927;-60
2023/05/23 11:53:41;;;;;;;;;;;;;;;20.45;45.33;97902.59;5082245;28;19920;-62
2023/05/23 11:56:11;;;;;;;;;;;;;;;20.33;45.87;97904.44;5091303;28;19950;-60
2023/05/23 11:58:39;;;;;;;;;;;;;;;20.21;46.21;97898.41;5089683;28;19940;-58
2023/05/23 12:01:08;;;;;;;;;;;;;;;20.14;46.61;97894.38;5093086;28;19931;-58
2023/05/23 12:03:37;;;;;;;;;;;;;;;20.09;46.86;97902.19;5093269;28;19969;-57
2023/05/23 12:06:05;;;;;;;;;;;;;;;20.00;47.15;97912.69;5090908;28;19920;-58
2023/05/23 12:08:33;;;;;;;;;;;;;;;19.72;47.20;97916.66;5088242;28;19986;-65
2023/05/23 12:11:02;;;;;;;;;;;;;;;19.74;47.10;97900.53;5084811;28;20382;-60
2023/05/23 12:13:31;;;;;;;;;;;;;;;19.77;47.19;97905.31;5092110;28;19935;-57
2023/05/23 12:15:59;;;;;;;;;;;;;;;19.83;47.15;97905.78;5094119;28;19945;-63
2023/05/23 12:18:27;;;;;;;;;;;;;;;19.97;47.12;97907.91;5100253;28;20200;-57
2023/05/23 12:20:55;;;;;;;;;;;;;;;20.00;46.15;97907.97;5090766;28;19934;-57
2023/05/23 12:23:23;;;;;;;;;;;;;;;20.08;45.61;97923.47;5089040;28;19958;-65
2023/05/23 12:25:52;;;;;;;;;;;;;;;20.09;45.38;97914.00;5085437;28;19934;-58
2023/05/23 12:28:19;;;;;;;;;;;;;;;20.05;45.69;97907.66;5095391;28;19939;-57
2023/05/23 12:30:49;;;;;;;;;;;;;;;20.11;45.86;97908.91;5084613;28;19935;-68
2023/05/23 12:33:18;;;;;;;;;;;;;;;20.12;45.91;97907.72;5080164;28;19947;-60
2023/05/23 12:35:48;;;;;;;;;;;;;;;20.04;46.45;97910.78;5078250;28;20361;-62
2023/05/23 12:38:17;;;;;;;;;;;;;;;19.86;47.03;97910.53;5085168;28;19969;-62
2023/05/23 12:40:44;;;;;;;;;;;;;;;19.74;47.28;97910.75;5085410;28;19931;-57
2023/05/23 12:43:15;;;;;;;;;;;;;;;19.62;47.74;97917.28;5088585;28;19980;-60
2023/05/23 12:45:43;;;;;;;;;;;;;;;19.62;47.87;97911.78;5088217;28;19938;-58
2023/05/23 12:48:12;;;;;;;;;;;;;;;19.56;48.07;97924.25;5087983;28;19935;-56
2023/05/23 12:50:40;;;;;;;;;;;;;;;19.51;48.16;97922.59;5089038;28;19931;-58
2023/05/23 12:53:10;;;;;;;;;;;;;;;19.42;48.37;97924.00;5082043;28;20412;-57
2023/05/23 12:55:37;;;;;;;;;;;;;;;19.47;48.46;97918.97;5080677;28;19996;-57
2023/05/23 12:58:06;;;;;;;;;;;;;;;19.54;48.38;97923.81;5105574;28;19958;-60
2023/05/23 13:00:33;;;;;;;;;;;;;;;19.62;48.10;97928.31;5083772;28;19930;-58
2023/05/23 13:03:01;;;;;;;;;;;;;;;19.66;48.45;97922.84;5087824;28;19950;-59